createdAt,value
2023-02-27T00:02:02.745Z,3.78
2023-02-27T00:05:07.903Z,3.53
2023-02-27T00:08:12.081Z,3.33
2023-02-27T00:11:13.604Z,4.15
2023-02-27T00:14:15.821Z,3.88
2023-02-27T00:20:42.088Z,4.00
2023-02-27T00:23:43.589Z,3.63
2023-02-27T00:27:10.639Z,5.35
2023-02-27T00:33:17.570Z,5.28
2023-02-27T00:36:19.095Z,4.28
2023-02-27T00:39:20.673Z,4.53
2023-02-27T00:42:37.826Z,4.80
2023-02-27T00:45:42.850Z,4.20
2023-02-27T00:48:44.311Z,4.45
2023-02-27T00:51:46.721Z,4.80
2023-02-27T00:54:55.644Z,4.07
2023-02-27T00:58:00.756Z,3.95
2023-02-27T01:01:10.658Z,4.65
2023-02-27T01:04:12.370Z,4.90
2023-02-27T01:07:14.052Z,5.10
2023-02-27T01:10:16.466Z,4.45
2023-02-27T01:13:21.054Z,4.57
2023-02-27T01:16:25.769Z,4.13
2023-02-27T01:19:30.385Z,4.18
2023-02-27T01:22:58.664Z,4.78
2023-02-27T01:26:06.246Z,4.72
2023-02-27T01:29:08.845Z,4.60
2023-02-27T01:32:19.617Z,4.68
2023-02-27T01:35:22.823Z,4.05
2023-02-27T01:38:33.537Z,4.40
2023-02-27T01:41:38.042Z,4.28
2023-02-27T01:45:17.157Z,4.82
2023-02-27T01:48:23.851Z,4.50
2023-02-27T01:51:33.166Z,4.00
2023-02-27T01:55:02.495Z,4.35
2023-02-27T01:58:20.845Z,4.35
2023-02-27T02:01:23.461Z,4.35
2023-02-27T02:04:28.570Z,4.57
2023-02-27T02:07:37.695Z,4.05
2023-02-27T02:10:39.861Z,4.13
2023-02-27T02:13:53.323Z,3.72
2023-02-27T02:17:15.084Z,4.72
2023-02-27T02:24:20.255Z,4.32
2023-02-27T02:27:43.399Z,4.47
2023-02-27T02:31:23.462Z,4.60
2023-02-27T02:35:07.709Z,4.60
2023-02-27T02:38:54.075Z,4.20
2023-02-27T02:42:28.069Z,4.35
2023-02-27T02:45:51.537Z,3.90
2023-02-27T02:49:00.335Z,4.60
2023-02-27T02:52:47.772Z,4.20
2023-02-27T02:56:21.506Z,4.32
2023-02-27T02:59:47.621Z,4.30
2023-02-27T03:03:20.566Z,4.50
2023-02-27T03:06:36.005Z,3.90
2023-02-27T03:09:45.239Z,4.15
2023-02-27T03:13:14.190Z,4.90
2023-02-27T03:16:21.978Z,5.05
2023-02-27T03:19:38.701Z,4.05
2023-02-27T03:22:52.037Z,4.70
2023-02-27T03:26:05.559Z,4.10
2023-02-27T03:29:11.549Z,4.40
2023-02-27T03:32:20.277Z,4.50
2023-02-27T03:35:46.526Z,4.80
2023-02-27T03:39:11.563Z,4.68
2023-02-27T03:42:35.675Z,4.45
2023-02-27T03:49:39.878Z,4.25
2023-02-27T03:53:05.061Z,4.50
2023-02-27T03:56:09.063Z,4.50
2023-02-27T03:59:10.932Z,4.47
2023-02-27T04:05:30.574Z,4.43
2023-02-27T04:08:46.433Z,5.63
2023-02-27T04:12:24.485Z,4.65
2023-02-27T04:19:17.867Z,4.55
2023-02-27T04:22:52.200Z,4.60
2023-02-27T04:26:27.695Z,4.82
2023-02-27T04:30:10.403Z,4.80
2023-02-27T04:33:42.396Z,4.80
2023-02-27T04:37:07.141Z,4.35
2023-02-27T04:40:27.117Z,4.88
2023-02-27T04:43:31.012Z,4.40
2023-02-27T04:46:39.157Z,4.80
2023-02-27T04:49:48.224Z,5.32
2023-02-27T04:53:06.144Z,5.65
2023-02-27T04:56:14.324Z,4.40
2023-02-27T04:59:28.649Z,5.78
2023-02-27T05:02:37.223Z,4.68
2023-02-27T05:05:43.702Z,5.43
2023-02-27T05:09:01.071Z,5.22
2023-02-27T05:12:26.795Z,6.53
2023-02-27T05:15:53.189Z,5.03
2023-02-27T05:18:58.599Z,5.00
2023-02-27T05:22:18.902Z,5.10
2023-02-27T05:25:26.367Z,4.95
2023-02-27T05:28:45.665Z,4.80
2023-02-27T05:31:53.803Z,5.07
2023-02-27T05:35:20.100Z,4.93
2023-02-27T05:38:34.592Z,5.10
2023-02-27T05:42:06.263Z,4.35
2023-02-27T05:45:14.301Z,5.68
2023-02-27T05:48:21.614Z,5.78
2023-02-27T05:51:29.801Z,5.22
2023-02-27T05:55:00.788Z,6.35
2023-02-27T05:58:08.764Z,6.45
2023-02-27T06:01:24.842Z,6.03
2023-02-27T06:04:30.147Z,4.90
2023-02-27T06:07:50.343Z,4.88
2023-02-27T06:11:01.004Z,24.08
2023-02-27T06:14:03.345Z,8.45
2023-02-27T06:17:05.053Z,6.88
2023-02-27T06:20:07.918Z,7.38
2023-02-27T06:23:37.404Z,6.95
2023-02-27T06:26:46.254Z,5.93
2023-02-27T06:29:49.071Z,6.35
2023-02-27T06:32:50.984Z,7.20
2023-02-27T06:35:53.356Z,7.63
2023-02-27T06:39:02.296Z,5.13
2023-02-27T06:42:04.529Z,6.22
2023-02-27T06:45:06.934Z,5.15
2023-02-27T06:48:10.099Z,5.90
2023-02-27T06:51:12.062Z,8.05
2023-02-27T06:54:15.229Z,6.03
2023-02-27T07:00:51.805Z,5.60
2023-02-27T07:03:55.496Z,5.60
2023-02-27T07:07:34.108Z,5.85
2023-02-27T07:10:24.064Z,5.30
2023-02-27T07:13:27.682Z,5.47
2023-02-27T07:19:48.180Z,6.00
2023-02-27T07:22:52.902Z,5.85
2023-02-27T07:25:56.218Z,6.30
2023-02-27T07:29:14.843Z,5.03
2023-02-27T07:32:19.015Z,6.80
2023-02-27T07:35:23.628Z,7.20
2023-02-27T07:38:32.455Z,6.45
2023-02-27T07:44:56.628Z,6.93
2023-02-27T07:47:58.168Z,6.25
2023-02-27T07:51:00.281Z,6.00
2023-02-27T07:54:04.241Z,5.78
2023-02-27T07:57:06.588Z,5.82
2023-02-27T08:00:11.635Z,7.20
2023-02-27T08:03:18.386Z,5.78
2023-02-27T08:06:22.352Z,5.75
2023-02-27T08:09:24.013Z,7.00
2023-02-27T08:12:38.740Z,5.38
2023-02-27T08:15:41.339Z,5.22
2023-02-27T08:18:56.349Z,5.25
2023-02-27T08:21:57.880Z,4.90
2023-02-27T08:25:00.469Z,4.97
2023-02-27T08:28:02.277Z,5.57
2023-02-27T08:31:07.098Z,5.65
2023-02-27T08:34:10.840Z,5.15
2023-02-27T08:37:15.587Z,5.18
2023-02-27T08:40:17.694Z,5.20
2023-02-27T08:43:23.284Z,5.05
2023-02-27T08:46:25.231Z,7.85
2023-02-27T08:49:27.013Z,6.57
2023-02-27T08:52:29.402Z,5.22
2023-02-27T08:55:36.172Z,5.30
2023-02-27T09:01:40.103Z,5.93
2023-02-27T09:04:41.566Z,6.57
2023-02-27T09:07:56.586Z,4.75
2023-02-27T09:10:58.247Z,5.55
2023-02-27T09:14:07.401Z,4.78
2023-02-27T09:17:09.000Z,5.93
2023-02-27T09:20:11.366Z,6.25
2023-02-27T09:23:12.887Z,5.30
2023-02-27T09:26:14.791Z,5.30
2023-02-27T09:29:18.550Z,5.10
2023-02-27T09:32:32.704Z,4.75
2023-02-27T09:35:34.357Z,5.38
2023-02-27T09:38:38.528Z,5.00
2023-02-27T09:41:55.663Z,4.78
2023-02-27T09:45:06.789Z,4.95
2023-02-27T09:48:26.816Z,4.90
2023-02-27T09:51:29.624Z,4.60
2023-02-27T09:54:33.521Z,5.00
2023-02-27T09:57:48.051Z,5.80
2023-02-27T10:01:03.358Z,4.90
2023-02-27T10:04:29.927Z,5.07
2023-02-27T10:07:45.053Z,6.72
2023-02-27T10:11:00.367Z,5.28
2023-02-27T10:14:29.487Z,5.68
2023-02-27T10:17:39.492Z,5.22
2023-02-27T10:20:57.803Z,6.05
2023-02-27T10:24:17.090Z,7.15
2023-02-27T10:27:23.293Z,6.55
2023-02-27T10:30:32.861Z,5.35
2023-02-27T10:33:40.229Z,8.65
2023-02-27T10:36:45.514Z,7.23
2023-02-27T10:39:54.124Z,7.80
2023-02-27T10:42:58.900Z,5.32
2023-02-27T10:46:02.450Z,5.80
2023-02-27T10:49:33.380Z,5.95
2023-02-27T10:52:48.966Z,5.60
2023-02-27T10:56:06.508Z,5.55
2023-02-27T10:59:19.182Z,6.03
2023-02-27T11:02:29.256Z,5.28
2023-02-27T11:05:36.611Z,7.35
2023-02-27T11:08:44.452Z,5.30
2023-02-27T11:11:46.478Z,6.50
2023-02-27T11:14:52.578Z,6.15
2023-02-27T11:17:57.672Z,5.13
2023-02-27T11:21:23.030Z,5.00
2023-02-27T11:24:24.670Z,5.53
2023-02-27T11:27:34.559Z,4.93
2023-02-27T11:30:39.490Z,6.22
2023-02-27T11:33:50.683Z,5.55
2023-02-27T11:36:56.081Z,6.43
2023-02-27T11:40:16.738Z,6.47
2023-02-27T11:43:23.019Z,6.00
2023-02-27T11:46:46.281Z,6.47
2023-02-27T11:50:25.136Z,5.43
2023-02-27T11:54:09.502Z,6.60
2023-02-27T11:57:26.816Z,7.75
2023-02-27T12:00:36.076Z,5.22
2023-02-27T12:04:18.926Z,4.72
2023-02-27T12:07:58.740Z,5.68
2023-02-27T12:11:28.080Z,5.95
2023-02-27T12:14:53.423Z,6.05
2023-02-27T12:18:06.494Z,5.45
2023-02-27T12:21:14.611Z,5.45
2023-02-27T12:24:25.156Z,5.65
2023-02-27T12:27:45.391Z,7.13
2023-02-27T12:31:09.517Z,5.80
2023-02-27T12:34:43.279Z,5.65
2023-02-27T12:37:45.225Z,5.28
2023-02-27T12:41:19.421Z,6.00
2023-02-27T12:44:47.850Z,5.57
2023-02-27T12:48:12.478Z,5.95
2023-02-27T12:51:51.603Z,5.97
2023-02-27T12:55:06.502Z,5.43
2023-02-27T12:59:29.145Z,5.50
2023-02-27T13:02:53.503Z,5.57
2023-02-27T13:06:24.626Z,6.22
2023-02-27T13:09:51.050Z,4.72
2023-02-27T13:13:03.461Z,5.53
2023-02-27T13:16:22.027Z,4.72
2023-02-27T13:19:39.976Z,5.35
2023-02-27T13:23:06.793Z,5.03
2023-02-27T13:26:25.972Z,5.55
2023-02-27T13:29:47.569Z,5.88
2023-02-27T13:32:55.430Z,5.38
2023-02-27T13:36:23.906Z,4.85
2023-02-27T13:39:44.000Z,5.00
2023-02-27T13:42:45.539Z,4.80
2023-02-27T13:45:57.117Z,5.50
2023-02-27T13:49:26.949Z,4.80
2023-02-27T13:52:38.522Z,4.65
2023-02-27T13:55:53.984Z,4.90
2023-02-27T13:58:57.936Z,5.10
2023-02-27T14:02:19.301Z,5.10
2023-02-27T14:05:45.406Z,5.10
2023-02-27T14:08:51.294Z,5.05
2023-02-27T14:15:19.673Z,5.22
2023-02-27T14:18:50.768Z,4.78
2023-02-27T14:22:01.358Z,5.07
2023-02-27T14:25:24.730Z,4.70
2023-02-27T14:28:55.854Z,5.68
2023-02-27T14:32:21.315Z,5.45
2023-02-27T14:35:23.723Z,5.50
2023-02-27T14:38:28.142Z,5.25
2023-02-27T14:41:51.801Z,5.68
2023-02-27T14:45:32.211Z,6.15
2023-02-27T14:48:37.668Z,4.97
2023-02-27T14:51:45.501Z,5.57
2023-02-27T14:54:50.180Z,4.90
2023-02-27T14:58:09.974Z,5.95
2023-02-27T15:01:11.638Z,4.90
2023-02-27T15:04:22.154Z,4.85
2023-02-27T15:07:26.910Z,5.53
2023-02-27T15:10:36.750Z,4.85
2023-02-27T15:13:40.102Z,5.88
2023-02-27T15:16:45.900Z,5.22
2023-02-27T15:19:55.670Z,5.50
2023-02-27T15:22:58.640Z,6.65
2023-02-27T15:26:03.151Z,5.07
2023-02-27T15:29:23.021Z,5.50
2023-02-27T15:32:27.811Z,4.40
2023-02-27T15:35:39.503Z,5.78
2023-02-27T15:38:41.081Z,9.85
2023-02-27T15:41:46.093Z,7.13
2023-02-27T15:44:48.694Z,5.22
2023-02-27T15:47:50.578Z,6.47
2023-02-27T15:50:58.608Z,6.45
2023-02-27T15:54:00.649Z,5.85
2023-02-27T15:57:05.046Z,5.45
2023-02-27T16:00:08.565Z,12.07
2023-02-27T16:03:20.731Z,19.30
2023-02-27T16:06:27.632Z,8.52
2023-02-27T16:09:36.641Z,7.25
2023-02-27T16:12:38.311Z,10.68
2023-02-27T16:15:41.038Z,16.38
2023-02-27T16:18:54.804Z,15.30
2023-02-27T16:22:21.830Z,9.57
2023-02-27T16:28:39.980Z,6.38
2023-02-27T16:31:49.710Z,6.43
2023-02-27T16:35:01.057Z,6.15
2023-02-27T16:38:05.724Z,7.82
2023-02-27T16:41:11.577Z,7.07
2023-02-27T16:44:13.163Z,8.98
2023-02-27T16:47:14.778Z,7.55
2023-02-27T16:50:43.069Z,12.80
2023-02-27T16:53:47.723Z,15.25
2023-02-27T16:56:50.437Z,10.57
2023-02-27T16:59:51.978Z,9.80
2023-02-27T17:02:53.520Z,12.90
2023-02-27T17:09:19.062Z,9.55
2023-02-27T17:12:23.236Z,7.60
2023-02-27T17:15:31.345Z,6.40
2023-02-27T17:18:33.528Z,6.60
2023-02-27T17:21:35.328Z,9.65
2023-02-27T17:24:38.281Z,6.78
2023-02-27T17:27:41.528Z,15.18
2023-02-27T17:30:50.516Z,9.13
2023-02-27T17:33:53.618Z,7.05
2023-02-27T17:36:57.592Z,6.47
2023-02-27T17:40:01.358Z,5.40
2023-02-27T17:43:03.092Z,5.18
2023-02-27T17:46:06.711Z,5.15
2023-02-27T17:49:18.599Z,7.53
2023-02-27T17:52:21.032Z,6.70
2023-02-27T17:55:22.653Z,6.18
2023-02-27T17:58:25.197Z,5.05
2023-02-27T18:01:34.975Z,6.22
2023-02-27T18:04:37.129Z,7.10
2023-02-27T18:07:50.840Z,6.03
2023-02-27T18:10:52.928Z,6.50
2023-02-27T18:13:57.773Z,5.65
2023-02-27T18:16:59.936Z,5.18
2023-02-27T18:20:05.325Z,5.05
2023-02-27T18:23:08.771Z,5.75
2023-02-27T18:26:32.543Z,7.00
2023-02-27T18:29:36.691Z,6.25
2023-02-27T18:32:42.583Z,7.15
2023-02-27T18:35:51.362Z,8.70
2023-02-27T18:38:56.022Z,8.80
2023-02-27T18:42:00.562Z,11.85
2023-02-27T18:45:02.088Z,8.02
2023-02-27T18:48:04.006Z,6.53
2023-02-27T18:51:12.188Z,7.53
2023-02-27T18:54:20.182Z,15.95
2023-02-27T18:57:21.797Z,16.23
2023-02-27T19:00:31.628Z,11.48
2023-02-27T19:03:34.426Z,23.02
2023-02-27T19:06:40.877Z,13.90
2023-02-27T19:09:43.051Z,10.77
2023-02-27T19:12:44.744Z,7.80
2023-02-27T19:15:49.171Z,7.60
2023-02-27T19:18:50.732Z,10.40
2023-02-27T19:21:52.230Z,9.35
2023-02-27T19:25:00.178Z,9.18
2023-02-27T19:28:02.609Z,6.38
2023-02-27T19:31:12.733Z,5.93
2023-02-27T19:34:14.910Z,4.93
2023-02-27T19:37:19.640Z,5.82
2023-02-27T19:40:24.110Z,4.97
2023-02-27T19:43:25.619Z,6.32
2023-02-27T19:46:31.853Z,5.25
2023-02-27T19:49:33.763Z,4.70
2023-02-27T19:53:00.643Z,4.90
2023-02-27T19:56:07.750Z,4.65
2023-02-27T19:59:11.858Z,4.50
2023-02-27T20:02:16.273Z,4.30
2023-02-27T20:05:18.381Z,4.88
2023-02-27T20:08:19.988Z,4.95
2023-02-27T20:11:22.313Z,5.22
2023-02-27T20:14:28.055Z,4.75
2023-02-27T20:17:30.451Z,5.15
2023-02-27T20:20:32.126Z,4.35
2023-02-27T20:23:40.569Z,4.88
2023-02-27T20:26:50.579Z,4.45
2023-02-27T20:29:56.897Z,5.68
2023-02-27T20:33:00.932Z,5.47
2023-02-27T20:36:04.682Z,5.40
2023-02-27T20:39:07.300Z,4.70
2023-02-27T20:42:16.224Z,4.18
2023-02-27T20:45:17.816Z,4.65
2023-02-27T20:51:40.851Z,5.35
2023-02-27T20:54:42.397Z,4.82
2023-02-27T20:57:51.014Z,4.47
2023-02-27T21:01:00.506Z,4.30
2023-02-27T21:04:04.961Z,4.40
2023-02-27T21:07:17.418Z,4.50
2023-02-27T21:10:18.945Z,4.40
2023-02-27T21:13:25.832Z,5.05
2023-02-27T21:16:27.348Z,5.50
2023-02-27T21:19:31.361Z,5.95
2023-02-27T21:22:40.208Z,4.72
2023-02-27T21:25:45.443Z,4.85
2023-02-27T21:29:17.731Z,4.60
2023-02-27T21:32:21.703Z,5.22
2023-02-27T21:35:29.470Z,5.72
2023-02-27T21:38:31.274Z,5.18
2023-02-27T21:41:35.864Z,4.90
2023-02-27T21:44:38.402Z,5.45
2023-02-27T21:48:00.373Z,4.97
2023-02-27T21:51:05.289Z,4.53
2023-02-27T21:54:09.107Z,4.85
2023-02-27T21:57:13.603Z,5.90
2023-02-27T22:00:16.024Z,4.32
2023-02-27T22:03:17.609Z,5.32
2023-02-27T22:06:20.878Z,4.68
2023-02-27T22:09:22.604Z,4.47
2023-02-27T22:12:30.111Z,4.88
2023-02-27T22:15:31.773Z,4.93
2023-02-27T22:18:33.526Z,5.85
2023-02-27T22:21:36.150Z,5.88
2023-02-27T22:24:49.296Z,5.75
2023-02-27T22:27:53.076Z,4.43
2023-02-27T22:31:30.506Z,4.70
2023-02-27T22:34:34.629Z,4.90
2023-02-27T22:37:36.086Z,6.18
2023-02-27T22:40:47.367Z,5.15
2023-02-27T22:44:04.686Z,5.72
2023-02-27T22:47:07.751Z,5.93
2023-02-27T22:50:16.036Z,5.13
2023-02-27T22:53:17.601Z,5.57
2023-02-27T22:56:19.182Z,5.05
2023-02-27T22:59:29.778Z,5.03
2023-02-27T23:02:33.415Z,5.30
2023-02-27T23:08:51.784Z,4.65
2023-02-27T23:12:05.578Z,5.63
2023-02-27T23:15:07.962Z,5.15
2023-02-27T23:18:09.690Z,5.78
2023-02-27T23:21:12.432Z,5.97
2023-02-27T23:24:32.016Z,5.53
2023-02-27T23:30:55.568Z,4.93
2023-02-27T23:34:04.503Z,5.43
2023-02-27T23:37:15.239Z,5.63
2023-02-27T23:40:19.173Z,5.53
2023-02-27T23:43:46.120Z,5.57
2023-02-27T23:46:49.920Z,5.47
2023-02-27T23:49:51.408Z,5.55
2023-02-27T23:52:54.965Z,4.93
2023-02-27T23:55:58.966Z,5.55
2023-02-27T23:59:03.843Z,6.07
